Elkins-Randolph Co-Jennings Randolph Field
KEKN : now visible

Airfield :











YOU CAN JOIN US ON...

 
LOGIN :

Register | Disclaimer

   EN    FR    IT 

 









Legend :    VFR   Marginal VFR   IFR   Intensive IFR   Very Intensive IFR
Visi :
Ceiling :
>= 8 km
>= 3000ft
5 to 8 km
1000 to 3000 ft
1500m to 5 km
500 to 1000 ft
800 to 1500m
200 to 500 ft
< 800m
< 200 ft
Symbols :   Thunderstorms  Fog  Heavy snow  Heavy precipitations  Wind > 20 kt






- Airport Elevation : 1987 ft


KEKN - Elkins-Randolph Co-Jennings Randolph Field

CURRENT METAR :
  • 091451Z AUTO 30003KT 10SM CLR 26/21 A3005 RMK AO2 SLP163 T02610206 58004

EXPIRED METARs :
  • 091351Z AUTO 00000KT 10SM FEW006 23/19 A3006 RMK AO2 SLP169 T02330194
  • 091323Z AUTO 00000KT 10SM BKN005 21/18 A3007 RMK AO2 T02110183
  • 091251Z AUTO 00000KT 4SM BR OVC002 19/18 A3008 RMK AO2 SLP176 T01940178
  • 091237Z AUTO 00000KT 3SM BR OVC002 19/18 A3008 RMK AO2 T01940178
  • 091220Z AUTO 00000KT 1 1/2SM BR OVC003 19/18 A3007 RMK AO2 T01890178

TAF KEKN
Valid from the 09 at 12:00 until the 10 at 12:00 UTC


091136Z 0912/1012 00000KT 1/4SM FG BKN002
FM091300 00000KT P6SM FEW180
FM091500 VRB03KT P6SM FEW040
FM100200 00000KT P6SM FEW250
FM100700 00000KT 1/2SM FG BKN002
FM101100 00000KT P6SM FEW030
KZDC FIR / North America



MET'MAP, your aeronautical weather chart ! - Copyright ORBIFLY December 2007 - Disclaimer

ORBIFLY MET'MAP TEAM :

Programming & Development : Alexandra Zaïnal
Concept & original design : Baudouin d'Aumeries
Assistance for programming : Marc-Olivier Méhu
Technical & hardware support : Manuel Goepfert

Contact : metmap@orbifly.com




SOURCES & CREDITS :

   NOAA       Earth
Advisory